createdAt,value
2022-11-23T00:01:00.827Z,1008.7
2022-11-23T00:06:24.183Z,1008.6
2022-11-23T00:12:16.392Z,1008.7
2022-11-23T00:17:26.306Z,1008.7
2022-11-23T00:23:04.233Z,1008.6
2022-11-23T00:28:36.417Z,1008.6
2022-11-23T00:34:28.226Z,1008.6
2022-11-23T00:39:53.104Z,1008.5
2022-11-23T00:45:19.939Z,1008.5
2022-11-23T00:50:41.346Z,1008.6
2022-11-23T00:56:38.493Z,1008.6
2022-11-23T01:02:05.057Z,1008.6
2022-11-23T01:07:29.832Z,1008.5
2022-11-23T01:13:09.950Z,1008.4
2022-11-23T01:18:22.365Z,1008.5
2022-11-23T01:24:16.986Z,1008.5
2022-11-23T01:29:22.923Z,1008.6
2022-11-23T01:35:19.189Z,1008.6
2022-11-23T01:40:32.427Z,1008.6
2022-11-23T01:46:22.317Z,1008.5
2022-11-23T01:51:33.674Z,1008.5
2022-11-23T01:57:26.116Z,1008.5
2022-11-23T02:02:57.585Z,1008.6
2022-11-23T02:08:11.429Z,1008.6
2022-11-23T02:14:01.699Z,1008.5
2022-11-23T02:19:29.537Z,1008.5
2022-11-23T02:25:09.857Z,1008.5
2022-11-23T02:30:15.032Z,1008.5
2022-11-23T02:35:48.612Z,1008.5
2022-11-23T02:41:38.699Z,1008.5
2022-11-23T02:47:10.636Z,1008.4
2022-11-23T02:52:34.188Z,1008.4
2022-11-23T02:57:56.212Z,1008.4
2022-11-23T03:03:54.109Z,1008.3
2022-11-23T03:09:25.444Z,1008.4
2022-11-23T03:14:37.464Z,1008.3
2022-11-23T03:20:09.269Z,1008.4
2022-11-23T03:25:57.525Z,1008.4
2022-11-23T03:31:17.632Z,1008.5
2022-11-23T03:36:41.766Z,1008.3
2022-11-23T03:42:23.652Z,1008.3
2022-11-23T03:53:29.853Z,1008.1
2022-11-23T03:58:47.736Z,1008.1
2022-11-23T04:04:24.022Z,1008
2022-11-23T04:10:05.895Z,1008.1
2022-11-23T04:15:46.498Z,1008
2022-11-23T04:21:08.120Z,1007.9
2022-11-23T04:26:51.331Z,1007.9
2022-11-23T04:32:05.555Z,1008
2022-11-23T04:38:01.746Z,1007.8
2022-11-23T04:43:23.232Z,1007.9
2022-11-23T04:48:47.448Z,1007.9
2022-11-23T04:54:33.171Z,1007.9
2022-11-23T04:59:46.117Z,1007.8
2022-11-23T05:05:36.404Z,1007.7
2022-11-23T05:11:17.012Z,1007.9
2022-11-23T05:16:40.658Z,1007.9
2022-11-23T05:22:07.645Z,1007.9
2022-11-23T05:27:31.568Z,1008.1
2022-11-23T05:32:59.912Z,1008
2022-11-23T05:38:35.712Z,1008
2022-11-23T05:44:17.044Z,1008
2022-11-23T05:49:38.297Z,1008
2022-11-23T05:55:25.024Z,1008.1
2022-11-23T06:00:46.478Z,1008.1
2022-11-23T06:06:20.758Z,1008.1
2022-11-23T06:11:46.747Z,1008
2022-11-23T06:17:38.122Z,1008.1
2022-11-23T06:22:44.154Z,1008.1
2022-11-23T06:28:39.050Z,1008.3
2022-11-23T06:33:47.127Z,1008.3
2022-11-23T06:39:35.700Z,1008.3
2022-11-23T06:45:10.395Z,1008.4
2022-11-23T06:50:33.433Z,1008.4
2022-11-23T06:56:18.096Z,1008.4
2022-11-23T07:01:50.111Z,1008.4
2022-11-23T07:07:07.975Z,1008.5
2022-11-23T07:12:47.701Z,1008.6
2022-11-23T07:18:05.259Z,1008.6
2022-11-23T07:23:46.531Z,1008.6
2022-11-23T07:29:19.159Z,1008.6
2022-11-23T07:34:55.871Z,1008.7
2022-11-23T07:40:17.135Z,1008.7
2022-11-23T07:46:08.004Z,1008.5
2022-11-23T07:51:41.374Z,1008.4
2022-11-23T07:57:05.468Z,1008.4
2022-11-23T08:03:04.487Z,1008.4
2022-11-23T08:08:14.208Z,1008.4
2022-11-23T08:13:23.857Z,1008.4
2022-11-23T08:19:23.397Z,1008.3
2022-11-23T08:24:49.757Z,1008.3
2022-11-23T08:30:29.575Z,1008.3
2022-11-23T08:35:54.060Z,1008.3
2022-11-23T08:41:31.181Z,1008.3
2022-11-23T08:47:01.557Z,1008.5
2022-11-23T08:52:23.868Z,1008.4
2022-11-23T08:57:50.648Z,1008.3
2022-11-23T09:03:39.060Z,1008.1
2022-11-23T09:09:03.213Z,1008.1
2022-11-23T09:14:46.290Z,1008.4
2022-11-23T09:20:15.037Z,1008.4
2022-11-23T09:25:38.255Z,1008
2022-11-23T09:31:25.673Z,1007.9
2022-11-23T09:36:37.913Z,1007.7
2022-11-23T09:42:08.243Z,1007.7
2022-11-23T09:47:44.708Z,1007.7
2022-11-23T09:53:35.930Z,1007.7
2022-11-23T09:58:59.228Z,1007.5
2022-11-23T10:04:35.933Z,1007.5
2022-11-23T10:09:57.287Z,1007.5
2022-11-23T10:15:41.846Z,1007.3
2022-11-23T10:20:57.721Z,1007.2
2022-11-23T10:26:55.298Z,1006.9
2022-11-23T10:32:09.495Z,1007
2022-11-23T10:37:38.129Z,1007
2022-11-23T10:43:19.840Z,1006.9
2022-11-23T10:48:49.340Z,1006.8
2022-11-23T10:54:30.565Z,1006.8
2022-11-23T11:00:13.558Z,1006.7
2022-11-23T11:05:31.467Z,1006.6
2022-11-23T11:10:57.619Z,1006.6
2022-11-23T11:16:47.591Z,1006.5
2022-11-23T11:22:12.947Z,1006.5
2022-11-23T11:27:52.331Z,1006.6
2022-11-23T11:33:04.993Z,1006.6
2022-11-23T11:39:17.502Z,1006.7
2022-11-23T11:44:31.580Z,1006.6
2022-11-23T11:50:10.357Z,1006.6
2022-11-23T11:55:23.298Z,1006.5
2022-11-23T12:01:15.213Z,1006.5
2022-11-23T12:06:38.400Z,1006.4
2022-11-23T12:12:14.405Z,1006.3
2022-11-23T12:17:48.110Z,1006.2
2022-11-23T12:23:13.001Z,1006.4
2022-11-23T12:28:50.261Z,1006.2
2022-11-23T12:34:24.302Z,1006.3
2022-11-23T12:40:02.812Z,1006.3
2022-11-23T12:45:40.220Z,1006.3
2022-11-23T12:50:54.168Z,1006.3
2022-11-23T12:56:43.778Z,1006.3
2022-11-23T13:02:04.367Z,1006.2
2022-11-23T13:07:31.598Z,1006.2
2022-11-23T13:13:02.797Z,1006.3
2022-11-23T13:18:53.796Z,1006.1
2022-11-23T13:24:23.626Z,1006.1
2022-11-23T13:29:49.678Z,1006
2022-11-23T13:35:36.285Z,1005.9
2022-11-23T13:41:13.566Z,1006
2022-11-23T13:46:49.029Z,1006.1
2022-11-23T13:52:02.570Z,1006.2
2022-11-23T13:57:46.480Z,1006.1
2022-11-23T14:03:11.603Z,1006.1
2022-11-23T14:08:59.438Z,1006
2022-11-23T14:14:26.668Z,1006
2022-11-23T14:19:46.040Z,1006.2
2022-11-23T14:25:40.842Z,1006.4
2022-11-23T14:30:59.710Z,1006.7
2022-11-23T14:36:21.857Z,1006.8
2022-11-23T14:41:58.628Z,1006.9
2022-11-23T14:47:49.249Z,1006.9
2022-11-23T14:53:11.330Z,1007.2
2022-11-23T14:58:57.703Z,1007.2
2022-11-23T15:04:32.474Z,1007.2
2022-11-23T15:09:39.721Z,1007.3
2022-11-23T15:15:31.852Z,1007.5
2022-11-23T15:21:03.651Z,1007.5
2022-11-23T15:26:34.969Z,1007.8
2022-11-23T15:32:29.704Z,1007.7
2022-11-23T15:37:31.768Z,1008.1
2022-11-23T15:43:10.403Z,1008.5
2022-11-23T15:48:58.137Z,1008.6
2022-11-23T15:54:28.684Z,1008.7
2022-11-23T16:00:01.129Z,1008.9
2022-11-23T16:05:11.249Z,1009
2022-11-23T16:10:52.383Z,1009.2
2022-11-23T16:16:25.648Z,1009.4
2022-11-23T16:22:16.747Z,1009.5
2022-11-23T16:27:21.427Z,1009.6
2022-11-23T16:32:54.783Z,1009.6
2022-11-23T16:38:35.887Z,1009.6
2022-11-23T16:44:06.874Z,1009.7
2022-11-23T16:49:39.653Z,1009.9
2022-11-23T16:55:31.851Z,1010
2022-11-23T17:00:58.602Z,1010
2022-11-23T17:06:28.411Z,1010.2
2022-11-23T17:12:09.940Z,1010.2
2022-11-23T17:17:37.338Z,1010.6
2022-11-23T17:22:52.300Z,1010.6
2022-11-23T17:28:25.420Z,1010.8
2022-11-23T17:34:09.717Z,1011
2022-11-23T17:39:29.013Z,1011.3
2022-11-23T17:45:20.069Z,1011.4
2022-11-23T17:50:33.000Z,1011.7
2022-11-23T17:56:23.054Z,1011.8
2022-11-23T18:02:08.456Z,1012
2022-11-23T18:07:23.529Z,1012.3
2022-11-23T18:12:52.277Z,1012.2
2022-11-23T18:18:39.009Z,1012.5
2022-11-23T18:24:16.130Z,1012.6
2022-11-23T18:29:44.604Z,1012.5
2022-11-23T18:35:03.673Z,1012.6
2022-11-23T18:40:37.973Z,1012.7
2022-11-23T18:46:16.985Z,1013
2022-11-23T18:51:49.785Z,1013.2
2022-11-23T18:57:33.826Z,1013.5
2022-11-23T19:03:08.367Z,1013.6
2022-11-23T19:08:19.987Z,1013.6
2022-11-23T19:13:56.192Z,1013.8
2022-11-23T19:19:41.778Z,1014
2022-11-23T19:25:02.210Z,1014.2
2022-11-23T19:30:45.731Z,1014.2
2022-11-23T19:36:15.832Z,1014.1
2022-11-23T19:41:43.824Z,1014.4
2022-11-23T19:47:10.230Z,1014.4
2022-11-23T19:53:12.972Z,1014.5
2022-11-23T19:58:01.777Z,1014.6
2022-11-23T20:04:04.033Z,1014.6
2022-11-23T20:09:24.548Z,1014.7
2022-11-23T20:15:03.627Z,1014.9
2022-11-23T20:20:38.707Z,1014.7
2022-11-23T20:25:55.387Z,1014.9
2022-11-23T20:31:46.588Z,1015
2022-11-23T20:37:06.828Z,1015.1
2022-11-23T20:42:26.187Z,1015.2
2022-11-23T20:48:11.313Z,1015.4
2022-11-23T20:53:30.803Z,1015.5
2022-11-23T20:59:02.944Z,1015.6
2022-11-23T21:04:49.163Z,1015.6
2022-11-23T21:10:06.568Z,1015.8
2022-11-23T21:15:45.008Z,1015.8
2022-11-23T21:21:16.704Z,1015.6
2022-11-23T21:27:03.909Z,1015.7
2022-11-23T21:32:23.955Z,1015.7
2022-11-23T21:37:55.560Z,1015.8
2022-11-23T21:43:36.896Z,1016
2022-11-23T21:49:07.110Z,1015.9
2022-11-23T21:54:33.970Z,1015.8
2022-11-23T22:00:05.579Z,1016
2022-11-23T22:05:46.899Z,1016
2022-11-23T22:11:21.393Z,1015.9
2022-11-23T22:16:48.329Z,1016
2022-11-23T22:22:37.662Z,1016
2022-11-23T22:27:52.588Z,1016.2
2022-11-23T22:33:25.005Z,1016
2022-11-23T22:39:00.941Z,1016.1
2022-11-23T22:44:36.521Z,1016.2
2022-11-23T22:49:54.530Z,1016.3
2022-11-23T22:55:39.919Z,1016.3
2022-11-23T23:01:06.052Z,1016.4
2022-11-23T23:06:57.385Z,1016.5
2022-11-23T23:12:03.960Z,1016.4
2022-11-23T23:17:47.210Z,1016.5
2022-11-23T23:23:11.931Z,1016.6
2022-11-23T23:28:57.617Z,1016.6
2022-11-23T23:34:28.280Z,1016.7
2022-11-23T23:40:11.266Z,1016.7
2022-11-23T23:45:34.701Z,1016.6
2022-11-23T23:51:21.376Z,1016.6
2022-11-23T23:56:27.988Z,1016.8
